ABR176 EGCC-EBLG
Flight info
| Callsign | ABR176 |
|---|---|
| Flight time | 0h 59m |
| Altitude | 23000 |
| Route | LISTO L612 HON/N0486F290 L15 BIG Q70 VABIK/N0453F230 Q70 KOK |
| Aircraft | B748/H-SDE3FGHIM1M2RWXY/LB1 |
Departure
| Time | 2026-05-05 18:06 |
|---|---|
| Airport | Manchester Airport (EGCC) |
Arrival
| Time | 2026-05-05 19:05 |
|---|---|
| Airport | Liège Airport (EBLG) |
| Time | Latitude | Longitude | Altitude | Speed | Heading |
|---|---|---|---|---|---|
| 2026-05-05 17:45 | 53.35902 | -2.28004 | 257 ft | 0 kts | 290° |
| 2026-05-05 17:56 | 53.35897 | -2.27979 | 257 ft | 3 kts | 286° |
| 2026-05-05 17:56 | 53.35892 | -2.27948 | 257 ft | 3 kts | 280° |
| 2026-05-05 17:56 | 53.35890 | -2.27917 | 257 ft | 3 kts | 270° |
| 2026-05-05 17:57 | 53.35892 | -2.27889 | 257 ft | 2 kts | 251° |
| 2026-05-05 17:57 | 53.35898 | -2.27866 | 257 ft | 2 kts | 225° |
| 2026-05-05 17:57 | 53.35910 | -2.27851 | 257 ft | 2 kts | 202° |
| 2026-05-05 17:57 | 53.35926 | -2.27842 | 257 ft | 3 kts | 187° |
| 2026-05-05 17:58 | 53.35944 | -2.27841 | 257 ft | 2 kts | 178° |
| 2026-05-05 17:58 | 53.35945 | -2.27841 | 257 ft | 0 kts | 178° |
| 2026-05-05 17:59 | 53.35944 | -2.27841 | 257 ft | 0 kts | 179° |
| 2026-05-05 18:00 | 53.35943 | -2.27841 | 257 ft | 0 kts | 182° |
| 2026-05-05 18:00 | 53.35898 | -2.27847 | 257 ft | 18 kts | 185° |
| 2026-05-05 18:00 | 53.35678 | -2.27890 | 257 ft | 44 kts | 186° |
| 2026-05-05 18:01 | 53.35438 | -2.27949 | 255 ft | 14 kts | 213° |
| 2026-05-05 18:01 | 53.35350 | -2.28092 | 250 ft | 23 kts | 225° |
| 2026-05-05 18:01 | 53.35220 | -2.28326 | 243 ft | 31 kts | 231° |
| 2026-05-05 18:01 | 53.35077 | -2.28621 | 238 ft | 34 kts | 230° |
| 2026-05-05 18:02 | 53.34912 | -2.28917 | 233 ft | 36 kts | 226° |
| 2026-05-05 18:02 | 53.34749 | -2.29228 | 222 ft | 28 kts | 229° |
| 2026-05-05 18:02 | 53.34693 | -2.29313 | 218 ft | 0 kts | 211° |
| 2026-05-05 18:04 | 53.34692 | -2.29314 | 214 ft | 2 kts | 210° |
| 2026-05-05 18:04 | 53.34643 | -2.29335 | 212 ft | 15 kts | 185° |
| 2026-05-05 18:04 | 53.34554 | -2.29305 | 223 ft | 10 kts | 148° |
| 2026-05-05 18:05 | 53.34538 | -2.29228 | 223 ft | 7 kts | 71° |
| 2026-05-05 18:05 | 53.34678 | -2.28949 | 232 ft | 81 kts | 51° |
| 2026-05-05 18:05 | 53.35258 | -2.27732 | 274 ft | 180 kts | 51° |
| 2026-05-05 18:05 | 53.36155 | -2.25891 | 791 ft | 221 kts | 50° |
| 2026-05-05 18:06 | 53.37101 | -2.23956 | 2164 ft | 213 kts | 52° |
| 2026-05-05 18:06 | 53.37628 | -2.22487 | 2563 ft | 234 kts | 68° |
| 2026-05-05 18:06 | 53.37632 | -2.18666 | 3364 ft | 264 kts | 108° |
| 2026-05-05 18:06 | 53.36583 | -2.16141 | 4326 ft | 268 kts | 140° |
| 2026-05-05 18:07 | 53.34875 | -2.14612 | 4987 ft | 285 kts | 164° |
| 2026-05-05 18:07 | 53.32942 | -2.14434 | 4994 ft | 279 kts | 191° |
| 2026-05-05 18:07 | 53.31119 | -2.15413 | 5083 ft | 280 kts | 192° |
| 2026-05-05 18:07 | 53.29212 | -2.15223 | 6036 ft | 276 kts | 160° |
| 2026-05-05 18:08 | 53.27444 | -2.13932 | 7414 ft | 280 kts | 154° |
| 2026-05-05 18:08 | 53.25640 | -2.12635 | 8731 ft | 285 kts | 159° |
| 2026-05-05 18:08 | 53.23735 | -2.11619 | 9970 ft | 289 kts | 164° |
| 2026-05-05 18:08 | 53.21762 | -2.10686 | 10969 ft | 303 kts | 165° |
| 2026-05-05 18:09 | 53.19683 | -2.09622 | 11742 ft | 323 kts | 163° |
| 2026-05-05 18:09 | 53.17479 | -2.08433 | 12474 ft | 343 kts | 163° |
| 2026-05-05 18:09 | 53.15134 | -2.07186 | 13170 ft | 363 kts | 164° |
| 2026-05-05 18:09 | 53.12685 | -2.05913 | 13862 ft | 384 kts | 164° |
| 2026-05-05 18:10 | 53.10069 | -2.04557 | 14641 ft | 402 kts | 164° |
| 2026-05-05 18:10 | 53.07365 | -2.03146 | 15695 ft | 411 kts | 164° |
| 2026-05-05 18:10 | 53.04617 | -2.01705 | 16772 ft | 418 kts | 164° |
| 2026-05-05 18:10 | 53.01821 | -2.00245 | 17821 ft | 424 kts | 164° |
| 2026-05-05 18:11 | 52.98996 | -1.98784 | 18829 ft | 429 kts | 164° |
| 2026-05-05 18:11 | 52.96166 | -1.97314 | 20171 ft | 422 kts | 164° |
| 2026-05-05 18:11 | 52.93379 | -1.95864 | 21413 ft | 419 kts | 165° |
| 2026-05-05 18:11 | 52.90602 | -1.94424 | 22298 ft | 422 kts | 165° |
| 2026-05-05 18:12 | 52.87762 | -1.92961 | 22594 ft | 433 kts | 165° |
| 2026-05-05 18:12 | 52.84845 | -1.91460 | 22840 ft | 445 kts | 165° |
| 2026-05-05 18:12 | 52.81864 | -1.89920 | 23225 ft | 452 kts | 165° |
| 2026-05-05 18:12 | 52.78880 | -1.88378 | 23686 ft | 458 kts | 165° |
| 2026-05-05 18:13 | 52.75818 | -1.86805 | 24174 ft | 462 kts | 165° |
| 2026-05-05 18:13 | 52.72739 | -1.85227 | 24656 ft | 466 kts | 165° |
| 2026-05-05 18:13 | 52.69649 | -1.83641 | 25351 ft | 464 kts | 165° |
| 2026-05-05 18:13 | 52.66576 | -1.82066 | 26077 ft | 461 kts | 165° |
| 2026-05-05 18:14 | 52.63525 | -1.80506 | 26783 ft | 458 kts | 165° |
| 2026-05-05 18:14 | 52.60484 | -1.78953 | 27481 ft | 455 kts | 165° |
| 2026-05-05 18:14 | 52.57507 | -1.77435 | 28151 ft | 452 kts | 165° |
| 2026-05-05 18:14 | 52.54517 | -1.75916 | 28755 ft | 447 kts | 165° |
| 2026-05-05 18:15 | 52.51557 | -1.74412 | 28990 ft | 445 kts | 165° |
| 2026-05-05 18:15 | 52.45474 | -1.71326 | 28981 ft | 437 kts | 165° |
| 2026-05-05 18:16 | 52.39648 | -1.68382 | 28982 ft | 445 kts | 165° |
| 2026-05-05 18:16 | 52.36655 | -1.66808 | 29000 ft | 458 kts | 160° |
| 2026-05-05 18:16 | 52.33786 | -1.64362 | 29011 ft | 472 kts | 148° |
| 2026-05-05 18:16 | 52.31250 | -1.60909 | 29008 ft | 477 kts | 136° |
| 2026-05-05 18:17 | 52.29110 | -1.56845 | 29004 ft | 481 kts | 130° |
| 2026-05-05 18:17 | 52.25061 | -1.48125 | 28998 ft | 482 kts | 131° |
| 2026-05-05 18:18 | 52.20456 | -1.40227 | 28990 ft | 480 kts | 140° |
| 2026-05-05 18:18 | 52.15732 | -1.32553 | 28992 ft | 481 kts | 135° |
| 2026-05-05 18:19 | 52.11153 | -1.24589 | 28986 ft | 480 kts | 137° |
| 2026-05-05 18:19 | 52.06458 | -1.16840 | 28974 ft | 481 kts | 136° |
| 2026-05-05 18:20 | 52.01866 | -1.09029 | 28964 ft | 481 kts | 137° |
| 2026-05-05 18:20 | 51.97172 | -1.01269 | 28966 ft | 482 kts | 136° |
| 2026-05-05 18:21 | 51.92546 | -0.93505 | 28949 ft | 480 kts | 136° |
| 2026-05-05 18:21 | 51.87866 | -0.85751 | 28949 ft | 480 kts | 136° |
| 2026-05-05 18:22 | 51.83210 | -0.78023 | 28948 ft | 480 kts | 136° |
| 2026-05-05 18:22 | 51.78575 | -0.70369 | 28948 ft | 480 kts | 136° |
| 2026-05-05 18:23 | 51.73908 | -0.62690 | 28947 ft | 479 kts | 136° |
| 2026-05-05 18:23 | 51.69227 | -0.55013 | 28949 ft | 480 kts | 136° |
| 2026-05-05 18:24 | 51.64546 | -0.47354 | 28950 ft | 479 kts | 136° |
| 2026-05-05 18:24 | 51.59837 | -0.39678 | 28949 ft | 479 kts | 136° |
| 2026-05-05 18:25 | 51.55232 | -0.32015 | 28947 ft | 480 kts | 130° |
| 2026-05-05 18:25 | 51.52216 | -0.22452 | 28969 ft | 486 kts | 106° |
| 2026-05-05 18:26 | 51.51200 | -0.11694 | 28951 ft | 488 kts | 97° |
| 2026-05-05 18:26 | 51.50250 | -0.00923 | 28963 ft | 487 kts | 104° |
| 2026-05-05 18:27 | 51.48174 | 0.09359 | 28946 ft | 482 kts | 112° |
| 2026-05-05 18:27 | 51.45964 | 0.19490 | 28947 ft | 482 kts | 108° |
| 2026-05-05 18:28 | 51.43008 | 0.34798 | 28942 ft | 480 kts | 110° |
| 2026-05-05 18:28 | 51.40980 | 0.44996 | 28942 ft | 481 kts | 109° |
| 2026-05-05 18:29 | 51.38937 | 0.55189 | 28945 ft | 480 kts | 110° |
| 2026-05-05 18:29 | 51.36882 | 0.65347 | 28942 ft | 480 kts | 109° |
| 2026-05-05 18:30 | 51.34831 | 0.75487 | 28886 ft | 477 kts | 110° |
| 2026-05-05 18:30 | 51.33802 | 0.80525 | 28562 ft | 475 kts | 109° |
| 2026-05-05 18:30 | 51.32800 | 0.85448 | 28360 ft | 469 kts | 109° |
| 2026-05-05 18:31 | 51.31791 | 0.90387 | 28088 ft | 466 kts | 109° |
| 2026-05-05 18:31 | 51.30773 | 0.95345 | 27766 ft | 464 kts | 109° |
| 2026-05-05 18:31 | 51.29776 | 1.00195 | 27422 ft | 463 kts | 109° |
| 2026-05-05 18:31 | 51.28816 | 1.05091 | 27060 ft | 463 kts | 104° |
| 2026-05-05 18:32 | 51.28356 | 1.10177 | 26686 ft | 464 kts | 95° |
| 2026-05-05 18:32 | 51.28222 | 1.15332 | 26301 ft | 464 kts | 92° |
| 2026-05-05 18:32 | 51.28171 | 1.20491 | 25904 ft | 465 kts | 93° |
| 2026-05-05 18:32 | 51.27975 | 1.25641 | 25505 ft | 464 kts | 96° |
| 2026-05-05 18:33 | 51.27681 | 1.30766 | 25123 ft | 462 kts | 96° |
| 2026-05-05 18:33 | 51.27451 | 1.35870 | 24837 ft | 459 kts | 94° |
| 2026-05-05 18:33 | 51.27281 | 1.40951 | 24636 ft | 458 kts | 94° |
| 2026-05-05 18:33 | 51.27086 | 1.46018 | 24451 ft | 457 kts | 95° |
| 2026-05-05 18:34 | 51.26849 | 1.51065 | 24257 ft | 456 kts | 95° |
| 2026-05-05 18:34 | 51.26623 | 1.56041 | 24055 ft | 454 kts | 94° |
| 2026-05-05 18:34 | 51.26414 | 1.61063 | 23857 ft | 453 kts | 94° |
| 2026-05-05 18:34 | 51.26201 | 1.66080 | 23667 ft | 452 kts | 95° |
| 2026-05-05 18:35 | 51.25975 | 1.71077 | 23473 ft | 451 kts | 95° |
| 2026-05-05 18:35 | 51.25750 | 1.76043 | 23226 ft | 447 kts | 95° |
| 2026-05-05 18:35 | 51.25527 | 1.80969 | 22926 ft | 441 kts | 95° |
| 2026-05-05 18:35 | 51.25306 | 1.85852 | 22924 ft | 442 kts | 95° |
| 2026-05-05 18:36 | 51.25079 | 1.90744 | 22925 ft | 441 kts | 95° |
| 2026-05-05 18:36 | 51.24853 | 1.95612 | 22924 ft | 441 kts | 95° |
| 2026-05-05 18:36 | 51.24628 | 2.00432 | 22926 ft | 441 kts | 95° |
| 2026-05-05 18:36 | 51.24398 | 2.05313 | 22926 ft | 441 kts | 95° |
| 2026-05-05 18:37 | 51.24166 | 2.10192 | 22925 ft | 441 kts | 95° |
| 2026-05-05 18:37 | 51.23931 | 2.15076 | 22925 ft | 441 kts | 95° |
| 2026-05-05 18:37 | 51.23698 | 2.19948 | 22923 ft | 441 kts | 95° |
| 2026-05-05 18:37 | 51.23459 | 2.24838 | 22924 ft | 441 kts | 95° |
| 2026-05-05 18:38 | 51.23218 | 2.29709 | 22923 ft | 441 kts | 95° |
| 2026-05-05 18:38 | 51.22975 | 2.34584 | 22924 ft | 441 kts | 95° |
| 2026-05-05 18:38 | 51.22673 | 2.39455 | 22928 ft | 440 kts | 101° |
| 2026-05-05 18:38 | 51.21794 | 2.44112 | 22933 ft | 439 kts | 115° |
| 2026-05-05 18:39 | 51.20270 | 2.48305 | 22909 ft | 437 kts | 128° |
| 2026-05-05 18:39 | 51.18229 | 2.51867 | 22536 ft | 433 kts | 138° |
| 2026-05-05 18:39 | 51.15959 | 2.54949 | 22431 ft | 428 kts | 141° |
| 2026-05-05 18:39 | 51.13678 | 2.57927 | 22441 ft | 430 kts | 140° |
| 2026-05-05 18:40 | 51.11458 | 2.61126 | 22445 ft | 430 kts | 135° |
| 2026-05-05 18:40 | 51.09531 | 2.64768 | 22460 ft | 432 kts | 124° |
| 2026-05-05 18:40 | 51.08162 | 2.69012 | 22478 ft | 433 kts | 110° |
| 2026-05-05 18:40 | 51.07615 | 2.72068 | 22504 ft | 434 kts | 102° |
| 2026-05-05 18:41 | 51.07053 | 2.78235 | 22519 ft | 436 kts | 97° |
| 2026-05-05 18:41 | 51.06723 | 2.83026 | 22533 ft | 435 kts | 98° |
| 2026-05-05 18:41 | 51.06250 | 2.87571 | 22538 ft | 435 kts | 104° |
| 2026-05-05 18:41 | 51.05478 | 2.92238 | 22547 ft | 434 kts | 107° |
| 2026-05-05 18:42 | 51.04631 | 2.96787 | 22551 ft | 435 kts | 107° |
| 2026-05-05 18:42 | 51.03898 | 3.01446 | 22555 ft | 435 kts | 103° |
| 2026-05-05 18:42 | 51.03254 | 3.06138 | 22557 ft | 435 kts | 103° |
| 2026-05-05 18:42 | 51.02557 | 3.10815 | 22558 ft | 435 kts | 105° |
| 2026-05-05 18:43 | 51.01799 | 3.15463 | 22559 ft | 435 kts | 105° |
| 2026-05-05 18:43 | 51.01059 | 3.20111 | 22560 ft | 435 kts | 105° |
| 2026-05-05 18:43 | 51.00348 | 3.24784 | 22561 ft | 435 kts | 105° |
| 2026-05-05 18:43 | 50.99632 | 3.29445 | 22561 ft | 435 kts | 105° |
| 2026-05-05 18:44 | 50.98898 | 3.34104 | 22561 ft | 435 kts | 105° |
| 2026-05-05 18:44 | 50.98169 | 3.38703 | 22527 ft | 438 kts | 105° |
| 2026-05-05 18:44 | 50.97433 | 3.43392 | 22505 ft | 437 kts | 105° |
| 2026-05-05 18:44 | 50.96696 | 3.48078 | 22473 ft | 437 kts | 106° |
| 2026-05-05 18:45 | 50.95738 | 3.52635 | 22462 ft | 436 kts | 112° |
| 2026-05-05 18:45 | 50.94614 | 3.57097 | 22451 ft | 436 kts | 113° |
| 2026-05-05 18:45 | 50.93464 | 3.61545 | 22435 ft | 436 kts | 113° |
| 2026-05-05 18:45 | 50.92346 | 3.66008 | 22421 ft | 436 kts | 112° |
| 2026-05-05 18:46 | 50.91243 | 3.70485 | 22295 ft | 434 kts | 112° |
| 2026-05-05 18:46 | 50.90135 | 3.74910 | 21798 ft | 431 kts | 113° |
| 2026-05-05 18:46 | 50.89020 | 3.79299 | 21162 ft | 428 kts | 113° |
| 2026-05-05 18:46 | 50.87918 | 3.83647 | 20741 ft | 422 kts | 113° |
| 2026-05-05 18:47 | 50.86825 | 3.87972 | 20539 ft | 422 kts | 113° |
| 2026-05-05 18:47 | 50.85752 | 3.92231 | 20414 ft | 422 kts | 113° |
| 2026-05-05 18:47 | 50.84660 | 3.96535 | 20304 ft | 422 kts | 113° |
| 2026-05-05 18:47 | 50.83563 | 4.00839 | 20172 ft | 421 kts | 113° |
| 2026-05-05 18:48 | 50.82470 | 4.05126 | 20048 ft | 420 kts | 113° |
| 2026-05-05 18:48 | 50.81378 | 4.09410 | 19746 ft | 419 kts | 113° |
| 2026-05-05 18:48 | 50.80289 | 4.13667 | 19184 ft | 416 kts | 113° |
| 2026-05-05 18:48 | 50.79206 | 4.17889 | 18536 ft | 413 kts | 113° |
| 2026-05-05 18:49 | 50.78131 | 4.22086 | 17911 ft | 410 kts | 113° |
| 2026-05-05 18:49 | 50.77061 | 4.26245 | 17287 ft | 407 kts | 113° |
| 2026-05-05 18:49 | 50.76000 | 4.30358 | 16681 ft | 404 kts | 113° |
| 2026-05-05 18:49 | 50.74945 | 4.34451 | 16078 ft | 400 kts | 113° |
| 2026-05-05 18:50 | 50.73899 | 4.38495 | 15507 ft | 396 kts | 113° |
| 2026-05-05 18:50 | 50.72870 | 4.42462 | 14991 ft | 393 kts | 113° |
| 2026-05-05 18:50 | 50.71839 | 4.46434 | 14453 ft | 391 kts | 113° |
| 2026-05-05 18:50 | 50.70814 | 4.50380 | 13925 ft | 387 kts | 113° |
| 2026-05-05 18:51 | 50.69794 | 4.54300 | 13409 ft | 384 kts | 113° |
| 2026-05-05 18:51 | 50.68781 | 4.58179 | 12903 ft | 381 kts | 113° |
| 2026-05-05 18:51 | 50.67819 | 4.61864 | 12474 ft | 375 kts | 112° |
| 2026-05-05 18:51 | 50.66834 | 4.65635 | 11931 ft | 372 kts | 113° |
| 2026-05-05 18:52 | 50.65850 | 4.69377 | 11433 ft | 367 kts | 113° |
| 2026-05-05 18:52 | 50.65203 | 4.71838 | 11119 ft | 365 kts | 113° |
| 2026-05-05 18:52 | 50.64239 | 4.75506 | 10625 ft | 361 kts | 113° |
| 2026-05-05 18:52 | 50.62976 | 4.80309 | 9995 ft | 356 kts | 113° |
| 2026-05-05 18:53 | 50.62031 | 4.83892 | 9519 ft | 353 kts | 113° |
| 2026-05-05 18:53 | 50.61091 | 4.87444 | 9054 ft | 350 kts | 113° |
| 2026-05-05 18:53 | 50.60161 | 4.90960 | 8583 ft | 347 kts | 113° |
| 2026-05-05 18:53 | 50.59235 | 4.94453 | 8128 ft | 344 kts | 113° |
| 2026-05-05 18:54 | 50.58626 | 4.96747 | 7821 ft | 342 kts | 113° |
| 2026-05-05 18:54 | 50.57712 | 5.00187 | 7380 ft | 340 kts | 113° |
| 2026-05-05 18:54 | 50.56817 | 5.03555 | 6933 ft | 327 kts | 113° |
| 2026-05-05 18:54 | 50.55678 | 5.07804 | 6346 ft | 309 kts | 114° |
| 2026-05-05 18:55 | 50.54510 | 5.10522 | 5966 ft | 294 kts | 134° |
| 2026-05-05 18:55 | 50.53089 | 5.12758 | 5564 ft | 284 kts | 137° |
| 2026-05-05 18:55 | 50.52127 | 5.14172 | 5308 ft | 275 kts | 137° |
| 2026-05-05 18:55 | 50.50359 | 5.16903 | 4823 ft | 262 kts | 135° |
| 2026-05-05 18:56 | 50.49587 | 5.18314 | 4532 ft | 254 kts | 119° |
| 2026-05-05 18:56 | 50.49099 | 5.20862 | 4226 ft | 239 kts | 88° |
| 2026-05-05 18:56 | 50.49500 | 5.23220 | 3948 ft | 215 kts | 54° |
| 2026-05-05 18:56 | 50.50447 | 5.24926 | 3792 ft | 205 kts | 46° |
| 2026-05-05 18:57 | 50.51416 | 5.26557 | 3624 ft | 204 kts | 46° |
| 2026-05-05 18:57 | 50.52371 | 5.28146 | 3369 ft | 196 kts | 46° |
| 2026-05-05 18:57 | 50.53275 | 5.29653 | 3106 ft | 182 kts | 44° |
| 2026-05-05 18:57 | 50.54247 | 5.30889 | 2957 ft | 177 kts | 37° |
| 2026-05-05 18:58 | 50.55233 | 5.32079 | 2998 ft | 185 kts | 37° |
| 2026-05-05 18:58 | 50.56232 | 5.33269 | 2995 ft | 182 kts | 37° |
| 2026-05-05 18:58 | 50.57249 | 5.34376 | 2905 ft | 171 kts | 34° |
| 2026-05-05 18:58 | 50.58135 | 5.35590 | 2702 ft | 170 kts | 43° |
| 2026-05-05 18:59 | 50.58983 | 5.36843 | 2258 ft | 161 kts | 42° |
| 2026-05-05 18:59 | 50.59739 | 5.38092 | 1700 ft | 155 kts | 46° |
| 2026-05-05 18:59 | 50.60457 | 5.39325 | 1332 ft | 145 kts | 46° |
| 2026-05-05 18:59 | 50.61149 | 5.40364 | 1053 ft | 134 kts | 41° |
| 2026-05-05 19:00 | 50.61890 | 5.41505 | 953 ft | 149 kts | 43° |
| 2026-05-05 19:00 | 50.62580 | 5.42583 | 750 ft | 136 kts | 44° |
| 2026-05-05 19:00 | 50.63215 | 5.43575 | 650 ft | 120 kts | 45° |
| 2026-05-05 19:00 | 50.63795 | 5.44497 | 648 ft | 135 kts | 45° |
| 2026-05-05 19:01 | 50.64501 | 5.45675 | 1157 ft | 158 kts | 45° |
| 2026-05-05 19:01 | 50.65550 | 5.46421 | 1424 ft | 174 kts | 2° |
| 2026-05-05 19:01 | 50.66638 | 5.45558 | 1437 ft | 195 kts | 304° |
| 2026-05-05 19:01 | 50.66801 | 5.43396 | 1460 ft | 218 kts | 250° |
| 2026-05-05 19:02 | 50.65803 | 5.41524 | 1669 ft | 235 kts | 222° |
| 2026-05-05 19:02 | 50.64527 | 5.39876 | 1994 ft | 241 kts | 221° |
| 2026-05-05 19:02 | 50.63262 | 5.38159 | 2078 ft | 235 kts | 221° |
| 2026-05-05 19:02 | 50.62020 | 5.36551 | 1788 ft | 232 kts | 218° |
| 2026-05-05 19:03 | 50.60636 | 5.35472 | 1351 ft | 214 kts | 173° |
| 2026-05-05 19:03 | 50.59427 | 5.36464 | 956 ft | 193 kts | 117° |
| 2026-05-05 19:03 | 50.59380 | 5.38419 | 941 ft | 177 kts | 46° |
| 2026-05-05 19:03 | 50.60295 | 5.39681 | 739 ft | 182 kts | 40° |
| 2026-05-05 19:04 | 50.61211 | 5.40926 | 818 ft | 154 kts | 33° |
| 2026-05-05 19:04 | 50.62061 | 5.41747 | 693 ft | 146 kts | 40° |
| 2026-05-05 19:04 | 50.62764 | 5.42864 | 663 ft | 137 kts | 43° |
| 2026-05-05 19:04 | 50.63351 | 5.43784 | 643 ft | 91 kts | 46° |
| 2026-05-05 19:05 | 50.63656 | 5.44262 | 636 ft | 64 kts | 45° |
| 2026-05-05 19:05 | 50.63920 | 5.44741 | 635 ft | 53 kts | 63° |
| 2026-05-05 19:05 | 50.64003 | 5.45174 | 629 ft | 26 kts | 62° |
| 2026-05-05 19:05 | 50.64021 | 5.45211 | 623 ft | 0 kts | 46° |
| 2026-05-05 19:06 | 50.64033 | 5.45231 | 631 ft | 8 kts | 47° |
| 2026-05-05 19:06 | 50.64092 | 5.45333 | 624 ft | 12 kts | 53° |
| 2026-05-05 19:07 | 50.64091 | 5.45391 | 622 ft | 6 kts | 123° |
| 2026-05-05 19:07 | 50.64047 | 5.45466 | 629 ft | 9 kts | 135° |
| 2026-05-05 19:07 | 50.64039 | 5.45478 | 620 ft | 0 kts | 135° |